sensor_id;sensor_type;location;lat;lon;timestamp;P1;durP1;ratioP1;P2;durP2;ratioP2
50605;SDS011;36557;53.572;10.170;2023-07-30T00:02:00;3.72;;;2.38;;
50605;SDS011;36557;53.572;10.170;2023-07-30T00:04:26;4.90;;;2.42;;
50605;SDS011;36557;53.572;10.170;2023-07-30T00:06:52;5.10;;;2.55;;
50605;SDS011;36557;53.572;10.170;2023-07-30T00:09:18;3.15;;;2.40;;
50605;SDS011;36557;53.572;10.170;2023-07-30T00:11:44;3.30;;;2.28;;
50605;SDS011;36557;53.572;10.170;2023-07-30T00:14:10;3.65;;;2.35;;
50605;SDS011;36557;53.572;10.170;2023-07-30T00:16:36;2.65;;;2.20;;
50605;SDS011;36557;53.572;10.170;2023-07-30T00:19:02;2.70;;;2.00;;
50605;SDS011;36557;53.572;10.170;2023-07-30T00:21:28;3.40;;;2.42;;
50605;SDS011;36557;53.572;10.170;2023-07-30T00:23:54;3.92;;;2.38;;
50605;SDS011;36557;53.572;10.170;2023-07-30T00:26:20;3.30;;;2.30;;
50605;SDS011;36557;53.572;10.170;2023-07-30T00:28:46;3.83;;;2.20;;
50605;SDS011;36557;53.572;10.170;2023-07-30T00:31:12;4.35;;;2.10;;
50605;SDS011;36557;53.572;10.170;2023-07-30T00:33:38;4.70;;;1.95;;
50605;SDS011;36557;53.572;10.170;2023-07-30T00:36:04;5.15;;;1.77;;
50605;SDS011;36557;53.572;10.170;2023-07-30T00:38:30;5.50;;;2.33;;
50605;SDS011;36557;53.572;10.170;2023-07-30T00:40:56;3.72;;;1.88;;
50605;SDS011;36557;53.572;10.170;2023-07-30T00:43:22;2.70;;;1.77;;
50605;SDS011;36557;53.572;10.170;2023-07-30T00:45:48;2.83;;;1.77;;
50605;SDS011;36557;53.572;10.170;2023-07-30T00:48:15;3.72;;;2.50;;
50605;SDS011;36557;53.572;10.170;2023-07-30T00:50:41;5.47;;;1.90;;
50605;SDS011;36557;53.572;10.170;2023-07-30T00:53:07;3.72;;;2.00;;
50605;SDS011;36557;53.572;10.170;2023-07-30T00:55:34;2.28;;;1.38;;
50605;SDS011;36557;53.572;10.170;2023-07-30T00:58:01;3.90;;;1.90;;
50605;SDS011;36557;53.572;10.170;2023-07-30T01:00:27;3.15;;;1.90;;
50605;SDS011;36557;53.572;10.170;2023-07-30T01:02:54;4.05;;;2.08;;
50605;SDS011;36557;53.572;10.170;2023-07-30T01:05:21;2.67;;;1.63;;
50605;SDS011;36557;53.572;10.170;2023-07-30T01:07:47;4.68;;;1.98;;
50605;SDS011;36557;53.572;10.170;2023-07-30T01:10:13;2.92;;;1.77;;
50605;SDS011;36557;53.572;10.170;2023-07-30T01:12:39;3.42;;;1.65;;
50605;SDS011;36557;53.572;10.170;2023-07-30T01:15:06;5.03;;;1.92;;
50605;SDS011;36557;53.572;10.170;2023-07-30T01:17:33;2.72;;;1.75;;
50605;SDS011;36557;53.572;10.170;2023-07-30T01:19:59;3.80;;;2.03;;
50605;SDS011;36557;53.572;10.170;2023-07-30T01:22:25;2.38;;;1.83;;
50605;SDS011;36557;53.572;10.170;2023-07-30T01:24:51;2.15;;;1.50;;
50605;SDS011;36557;53.572;10.170;2023-07-30T01:27:22;4.55;;;1.63;;
50605;SDS011;36557;53.572;10.170;2023-07-30T01:29:55;5.38;;;1.73;;
50605;SDS011;36557;53.572;10.170;2023-07-30T01:32:25;2.63;;;1.73;;
50605;SDS011;36557;53.572;10.170;2023-07-30T01:34:52;3.20;;;1.77;;
50605;SDS011;36557;53.572;10.170;2023-07-30T01:37:19;3.40;;;1.48;;
50605;SDS011;36557;53.572;10.170;2023-07-30T01:39:46;2.35;;;1.50;;
50605;SDS011;36557;53.572;10.170;2023-07-30T01:42:13;3.72;;;1.63;;
50605;SDS011;36557;53.572;10.170;2023-07-30T01:44:40;3.63;;;1.58;;
50605;SDS011;36557;53.572;10.170;2023-07-30T01:47:06;2.80;;;1.52;;
50605;SDS011;36557;53.572;10.170;2023-07-30T01:49:32;2.80;;;1.75;;
50605;SDS011;36557;53.572;10.170;2023-07-30T01:51:58;3.63;;;1.85;;
50605;SDS011;36557;53.572;10.170;2023-07-30T01:54:24;2.70;;;1.40;;
50605;SDS011;36557;53.572;10.170;2023-07-30T01:56:50;4.25;;;1.40;;
50605;SDS011;36557;53.572;10.170;2023-07-30T01:59:16;2.42;;;1.35;;
50605;SDS011;36557;53.572;10.170;2023-07-30T02:01:43;3.75;;;1.80;;
50605;SDS011;36557;53.572;10.170;2023-07-30T02:04:09;4.30;;;1.60;;
50605;SDS011;36557;53.572;10.170;2023-07-30T02:06:35;3.80;;;1.70;;
50605;SDS011;36557;53.572;10.170;2023-07-30T02:09:01;2.42;;;1.55;;
50605;SDS011;36557;53.572;10.170;2023-07-30T02:11:27;2.40;;;1.65;;
50605;SDS011;36557;53.572;10.170;2023-07-30T02:13:54;2.92;;;1.83;;
50605;SDS011;36557;53.572;10.170;2023-07-30T02:16:20;5.40;;;1.90;;
50605;SDS011;36557;53.572;10.170;2023-07-30T02:18:46;2.90;;;2.00;;
50605;SDS011;36557;53.572;10.170;2023-07-30T02:21:12;4.00;;;1.95;;
50605;SDS011;36557;53.572;10.170;2023-07-30T02:23:38;3.40;;;1.90;;
50605;SDS011;36557;53.572;10.170;2023-07-30T02:26:04;4.68;;;1.77;;
50605;SDS011;36557;53.572;10.170;2023-07-30T02:28:30;2.55;;;2.10;;
50605;SDS011;36557;53.572;10.170;2023-07-30T02:30:56;3.13;;;1.90;;
50605;SDS011;36557;53.572;10.170;2023-07-30T02:33:22;4.10;;;2.30;;
50605;SDS011;36557;53.572;10.170;2023-07-30T02:35:48;3.05;;;2.30;;
50605;SDS011;36557;53.572;10.170;2023-07-30T02:38:14;5.57;;;2.50;;
50605;SDS011;36557;53.572;10.170;2023-07-30T02:40:40;4.70;;;2.50;;
50605;SDS011;36557;53.572;10.170;2023-07-30T02:43:06;3.83;;;2.65;;
50605;SDS011;36557;53.572;10.170;2023-07-30T02:45:32;3.30;;;2.38;;
50605;SDS011;36557;53.572;10.170;2023-07-30T02:47:58;6.97;;;2.50;;
50605;SDS011;36557;53.572;10.170;2023-07-30T02:50:25;3.50;;;2.60;;
50605;SDS011;36557;53.572;10.170;2023-07-30T02:52:51;3.63;;;2.60;;
50605;SDS011;36557;53.572;10.170;2023-07-30T02:55:17;3.42;;;2.50;;
50605;SDS011;36557;53.572;10.170;2023-07-30T02:57:43;3.30;;;2.65;;
50605;SDS011;36557;53.572;10.170;2023-07-30T03:00:09;3.53;;;2.72;;
50605;SDS011;36557;53.572;10.170;2023-07-30T03:02:36;4.20;;;2.30;;
50605;SDS011;36557;53.572;10.170;2023-07-30T03:05:02;4.32;;;2.80;;
50605;SDS011;36557;53.572;10.170;2023-07-30T03:07:28;3.53;;;2.75;;
50605;SDS011;36557;53.572;10.170;2023-07-30T03:09:54;3.67;;;2.75;;
50605;SDS011;36557;53.572;10.170;2023-07-30T03:12:20;3.78;;;3.15;;
50605;SDS011;36557;53.572;10.170;2023-07-30T03:14:46;4.10;;;2.78;;
50605;SDS011;36557;53.572;10.170;2023-07-30T03:17:12;3.30;;;2.58;;
50605;SDS011;36557;53.572;10.170;2023-07-30T03:19:38;4.28;;;2.95;;
50605;SDS011;36557;53.572;10.170;2023-07-30T03:22:04;4.65;;;2.78;;
50605;SDS011;36557;53.572;10.170;2023-07-30T03:24:30;3.47;;;2.95;;
50605;SDS011;36557;53.572;10.170;2023-07-30T03:26:56;4.47;;;2.65;;
50605;SDS011;36557;53.572;10.170;2023-07-30T03:29:22;4.80;;;3.08;;
50605;SDS011;36557;53.572;10.170;2023-07-30T03:31:48;4.72;;;2.78;;
50605;SDS011;36557;53.572;10.170;2023-07-30T03:34:14;4.78;;;3.42;;
50605;SDS011;36557;53.572;10.170;2023-07-30T03:36:40;4.13;;;3.05;;
50605;SDS011;36557;53.572;10.170;2023-07-30T03:39:06;4.15;;;2.95;;
50605;SDS011;36557;53.572;10.170;2023-07-30T03:41:32;3.13;;;2.78;;
50605;SDS011;36557;53.572;10.170;2023-07-30T03:44:00;5.60;;;3.70;;
50605;SDS011;36557;53.572;10.170;2023-07-30T03:46:26;8.02;;;3.20;;
50605;SDS011;36557;53.572;10.170;2023-07-30T03:48:52;5.10;;;3.50;;
50605;SDS011;36557;53.572;10.170;2023-07-30T03:51:18;4.47;;;3.50;;
50605;SDS011;36557;53.572;10.170;2023-07-30T03:53:44;4.40;;;3.25;;
50605;SDS011;36557;53.572;10.170;2023-07-30T03:56:10;4.30;;;3.30;;
50605;SDS011;36557;53.572;10.170;2023-07-30T03:58:36;4.90;;;3.03;;
50605;SDS011;36557;53.572;10.170;2023-07-30T04:01:02;4.97;;;3.40;;
50605;SDS011;36557;53.572;10.170;2023-07-30T04:03:28;5.68;;;3.50;;
50605;SDS011;36557;53.572;10.170;2023-07-30T04:05:54;3.88;;;3.03;;
50605;SDS011;36557;53.572;10.170;2023-07-30T04:08:20;6.07;;;3.53;;
50605;SDS011;36557;53.572;10.170;2023-07-30T04:10:46;6.32;;;3.70;;
50605;SDS011;36557;53.572;10.170;2023-07-30T04:13:13;5.25;;;3.45;;
50605;SDS011;36557;53.572;10.170;2023-07-30T04:15:39;5.72;;;3.50;;
50605;SDS011;36557;53.572;10.170;2023-07-30T04:18:08;6.47;;;3.60;;
50605;SDS011;36557;53.572;10.170;2023-07-30T04:20:34;7.35;;;4.03;;
50605;SDS011;36557;53.572;10.170;2023-07-30T04:23:00;5.95;;;3.70;;
50605;SDS011;36557;53.572;10.170;2023-07-30T04:25:26;4.53;;;3.58;;
50605;SDS011;36557;53.572;10.170;2023-07-30T04:27:53;6.45;;;3.67;;
50605;SDS011;36557;53.572;10.170;2023-07-30T04:30:19;6.72;;;4.03;;
50605;SDS011;36557;53.572;10.170;2023-07-30T04:32:45;4.75;;;3.55;;
50605;SDS011;36557;53.572;10.170;2023-07-30T04:35:11;9.95;;;3.95;;
50605;SDS011;36557;53.572;10.170;2023-07-30T04:37:37;5.07;;;3.25;;
50605;SDS011;36557;53.572;10.170;2023-07-30T04:40:03;6.00;;;3.70;;
50605;SDS011;36557;53.572;10.170;2023-07-30T04:42:29;6.70;;;4.03;;
50605;SDS011;36557;53.572;10.170;2023-07-30T04:44:55;7.95;;;4.05;;
50605;SDS011;36557;53.572;10.170;2023-07-30T04:47:21;7.57;;;4.15;;
50605;SDS011;36557;53.572;10.170;2023-07-30T04:49:47;5.28;;;3.40;;
50605;SDS011;36557;53.572;10.170;2023-07-30T04:52:14;10.05;;;3.33;;
50605;SDS011;36557;53.572;10.170;2023-07-30T04:54:40;5.72;;;3.53;;
50605;SDS011;36557;53.572;10.170;2023-07-30T04:57:06;7.50;;;3.90;;
50605;SDS011;36557;53.572;10.170;2023-07-30T04:59:32;5.20;;;3.53;;
50605;SDS011;36557;53.572;10.170;2023-07-30T05:02:01;6.65;;;3.67;;
50605;SDS011;36557;53.572;10.170;2023-07-30T05:04:27;6.85;;;3.58;;
50605;SDS011;36557;53.572;10.170;2023-07-30T05:06:53;7.43;;;3.65;;
50605;SDS011;36557;53.572;10.170;2023-07-30T05:09:19;6.00;;;2.97;;
50605;SDS011;36557;53.572;10.170;2023-07-30T05:11:45;6.50;;;3.25;;
50605;SDS011;36557;53.572;10.170;2023-07-30T05:14:11;6.90;;;3.33;;
50605;SDS011;36557;53.572;10.170;2023-07-30T05:16:37;9.40;;;3.33;;
50605;SDS011;36557;53.572;10.170;2023-07-30T05:19:03;9.48;;;3.38;;
50605;SDS011;36557;53.572;10.170;2023-07-30T05:21:30;6.65;;;3.40;;
50605;SDS011;36557;53.572;10.170;2023-07-30T05:23:56;7.22;;;3.25;;
50605;SDS011;36557;53.572;10.170;2023-07-30T05:26:22;8.65;;;3.35;;
50605;SDS011;36557;53.572;10.170;2023-07-30T05:28:48;8.60;;;3.13;;
50605;SDS011;36557;53.572;10.170;2023-07-30T05:31:14;7.15;;;2.53;;
50605;SDS011;36557;53.572;10.170;2023-07-30T05:33:40;5.88;;;3.25;;
50605;SDS011;36557;53.572;10.170;2023-07-30T05:36:06;7.40;;;3.15;;
50605;SDS011;36557;53.572;10.170;2023-07-30T05:38:33;6.93;;;2.38;;
50605;SDS011;36557;53.572;10.170;2023-07-30T05:40:58;6.47;;;2.67;;
50605;SDS011;36557;53.572;10.170;2023-07-30T05:43:24;4.88;;;3.35;;
50605;SDS011;36557;53.572;10.170;2023-07-30T05:45:50;6.55;;;2.92;;
50605;SDS011;36557;53.572;10.170;2023-07-30T05:48:15;5.00;;;3.08;;
50605;SDS011;36557;53.572;10.170;2023-07-30T05:50:41;5.57;;;2.30;;
50605;SDS011;36557;53.572;10.170;2023-07-30T05:53:07;5.95;;;3.13;;
50605;SDS011;36557;53.572;10.170;2023-07-30T05:55:32;5.30;;;2.65;;
50605;SDS011;36557;53.572;10.170;2023-07-30T05:57:58;5.72;;;2.80;;
50605;SDS011;36557;53.572;10.170;2023-07-30T06:00:25;5.82;;;2.58;;
50605;SDS011;36557;53.572;10.170;2023-07-30T06:02:51;6.10;;;2.67;;
50605;SDS011;36557;53.572;10.170;2023-07-30T06:05:16;4.80;;;2.63;;
50605;SDS011;36557;53.572;10.170;2023-07-30T06:07:42;3.85;;;2.58;;
50605;SDS011;36557;53.572;10.170;2023-07-30T06:10:08;6.75;;;3.08;;
50605;SDS011;36557;53.572;10.170;2023-07-30T06:12:33;7.82;;;3.47;;
50605;SDS011;36557;53.572;10.170;2023-07-30T06:14:59;7.85;;;3.45;;
50605;SDS011;36557;53.572;10.170;2023-07-30T06:17:25;5.72;;;2.80;;
50605;SDS011;36557;53.572;10.170;2023-07-30T06:19:50;6.25;;;3.05;;
50605;SDS011;36557;53.572;10.170;2023-07-30T06:22:16;6.13;;;2.55;;
50605;SDS011;36557;53.572;10.170;2023-07-30T06:24:42;8.77;;;3.17;;
50605;SDS011;36557;53.572;10.170;2023-07-30T06:27:07;7.15;;;2.80;;
50605;SDS011;36557;53.572;10.170;2023-07-30T06:29:35;8.93;;;3.00;;
50605;SDS011;36557;53.572;10.170;2023-07-30T06:32:01;6.47;;;2.90;;
50605;SDS011;36557;53.572;10.170;2023-07-30T06:34:26;10.25;;;3.90;;
50605;SDS011;36557;53.572;10.170;2023-07-30T06:36:52;10.55;;;3.45;;
50605;SDS011;36557;53.572;10.170;2023-07-30T06:39:18;9.75;;;3.67;;
50605;SDS011;36557;53.572;10.170;2023-07-30T06:41:43;9.48;;;3.25;;
50605;SDS011;36557;53.572;10.170;2023-07-30T06:44:09;10.30;;;3.92;;
50605;SDS011;36557;53.572;10.170;2023-07-30T06:46:35;22.92;;;10.73;;
50605;SDS011;36557;53.572;10.170;2023-07-30T06:49:01;10.43;;;5.10;;
50605;SDS011;36557;53.572;10.170;2023-07-30T06:51:26;10.52;;;5.22;;
50605;SDS011;36557;53.572;10.170;2023-07-30T06:53:52;10.73;;;4.60;;
50605;SDS011;36557;53.572;10.170;2023-07-30T06:56:18;11.63;;;4.28;;
50605;SDS011;36557;53.572;10.170;2023-07-30T06:58:44;10.32;;;4.82;;
50605;SDS011;36557;53.572;10.170;2023-07-30T07:01:09;8.90;;;4.20;;
50605;SDS011;36557;53.572;10.170;2023-07-30T07:03:35;11.60;;;4.78;;
50605;SDS011;36557;53.572;10.170;2023-07-30T07:06:01;9.75;;;4.45;;
50605;SDS011;36557;53.572;10.170;2023-07-30T07:08:26;9.20;;;4.63;;
50605;SDS011;36557;53.572;10.170;2023-07-30T07:10:52;8.23;;;4.30;;
50605;SDS011;36557;53.572;10.170;2023-07-30T07:13:18;6.15;;;4.43;;
50605;SDS011;36557;53.572;10.170;2023-07-30T07:15:44;9.57;;;4.25;;
50605;SDS011;36557;53.572;10.170;2023-07-30T07:18:10;12.75;;;5.20;;
50605;SDS011;36557;53.572;10.170;2023-07-30T07:20:36;10.07;;;6.03;;
50605;SDS011;36557;53.572;10.170;2023-07-30T07:23:02;10.52;;;5.43;;
50605;SDS011;36557;53.572;10.170;2023-07-30T07:25:28;10.48;;;5.07;;
50605;SDS011;36557;53.572;10.170;2023-07-30T07:27:54;12.48;;;5.32;;
50605;SDS011;36557;53.572;10.170;2023-07-30T07:30:19;10.45;;;5.07;;
50605;SDS011;36557;53.572;10.170;2023-07-30T07:32:45;15.65;;;6.82;;
50605;SDS011;36557;53.572;10.170;2023-07-30T07:35:15;16.15;;;6.10;;
50605;SDS011;36557;53.572;10.170;2023-07-30T07:37:41;12.40;;;5.25;;
50605;SDS011;36557;53.572;10.170;2023-07-30T07:40:07;7.50;;;4.85;;
50605;SDS011;36557;53.572;10.170;2023-07-30T07:42:34;17.00;;;5.78;;
50605;SDS011;36557;53.572;10.170;2023-07-30T07:45:01;13.43;;;5.22;;
50605;SDS011;36557;53.572;10.170;2023-07-30T07:47:26;13.35;;;4.82;;
50605;SDS011;36557;53.572;10.170;2023-07-30T07:49:52;12.00;;;4.47;;
50605;SDS011;36557;53.572;10.170;2023-07-30T07:52:18;8.73;;;4.05;;
50605;SDS011;36557;53.572;10.170;2023-07-30T07:54:45;7.35;;;4.07;;
50605;SDS011;36557;53.572;10.170;2023-07-30T07:57:11;11.20;;;3.97;;
50605;SDS011;36557;53.572;10.170;2023-07-30T07:59:37;10.43;;;4.18;;
50605;SDS011;36557;53.572;10.170;2023-07-30T08:02:02;12.73;;;3.67;;
50605;SDS011;36557;53.572;10.170;2023-07-30T08:04:29;7.97;;;3.72;;
50605;SDS011;36557;53.572;10.170;2023-07-30T08:06:54;11.88;;;3.55;;
50605;SDS011;36557;53.572;10.170;2023-07-30T08:09:20;11.23;;;4.28;;
50605;SDS011;36557;53.572;10.170;2023-07-30T08:11:46;9.65;;;3.67;;
50605;SDS011;36557;53.572;10.170;2023-07-30T08:14:12;12.77;;;6.75;;
50605;SDS011;36557;53.572;10.170;2023-07-30T08:16:38;10.00;;;3.75;;
50605;SDS011;36557;53.572;10.170;2023-07-30T08:19:03;8.55;;;3.63;;
50605;SDS011;36557;53.572;10.170;2023-07-30T08:21:29;14.02;;;3.80;;
50605;SDS011;36557;53.572;10.170;2023-07-30T08:23:54;9.98;;;3.53;;
50605;SDS011;36557;53.572;10.170;2023-07-30T08:26:20;8.18;;;3.22;;
50605;SDS011;36557;53.572;10.170;2023-07-30T08:28:46;8.30;;;2.90;;
50605;SDS011;36557;53.572;10.170;2023-07-30T08:31:11;13.18;;;4.05;;
50605;SDS011;36557;53.572;10.170;2023-07-30T08:33:37;8.90;;;3.35;;
50605;SDS011;36557;53.572;10.170;2023-07-30T08:36:03;9.55;;;3.00;;
50605;SDS011;36557;53.572;10.170;2023-07-30T08:38:28;7.32;;;2.83;;
50605;SDS011;36557;53.572;10.170;2023-07-30T08:40:55;8.07;;;3.00;;
50605;SDS011;36557;53.572;10.170;2023-07-30T08:43:20;8.23;;;3.35;;
50605;SDS011;36557;53.572;10.170;2023-07-30T08:45:46;10.20;;;3.20;;
50605;SDS011;36557;53.572;10.170;2023-07-30T08:48:12;11.52;;;3.65;;
50605;SDS011;36557;53.572;10.170;2023-07-30T08:50:38;9.63;;;2.90;;
50605;SDS011;36557;53.572;10.170;2023-07-30T08:53:05;8.80;;;2.80;;
50605;SDS011;36557;53.572;10.170;2023-07-30T08:55:33;7.68;;;2.20;;
50605;SDS011;36557;53.572;10.170;2023-07-30T08:58:01;7.85;;;2.60;;
50605;SDS011;36557;53.572;10.170;2023-07-30T09:00:30;7.20;;;2.22;;
50605;SDS011;36557;53.572;10.170;2023-07-30T09:02:59;7.28;;;2.45;;
50605;SDS011;36557;53.572;10.170;2023-07-30T09:05:25;6.22;;;1.88;;
50605;SDS011;36557;53.572;10.170;2023-07-30T09:07:57;8.55;;;2.45;;
50605;SDS011;36557;53.572;10.170;2023-07-30T09:10:23;8.48;;;2.40;;
50605;SDS011;36557;53.572;10.170;2023-07-30T09:12:54;6.88;;;1.95;;
50605;SDS011;36557;53.572;10.170;2023-07-30T09:15:32;9.35;;;2.10;;
50605;SDS011;36557;53.572;10.170;2023-07-30T09:17:59;9.82;;;2.08;;
50605;SDS011;36557;53.572;10.170;2023-07-30T09:20:26;5.63;;;2.00;;
50605;SDS011;36557;53.572;10.170;2023-07-30T09:22:52;8.00;;;2.20;;
50605;SDS011;36557;53.572;10.170;2023-07-30T09:25:20;7.05;;;2.10;;
50605;SDS011;36557;53.572;10.170;2023-07-30T09:27:52;6.07;;;1.73;;
50605;SDS011;36557;53.572;10.170;2023-07-30T09:30:24;5.93;;;2.53;;
50605;SDS011;36557;53.572;10.170;2023-07-30T09:32:52;5.70;;;1.90;;
50605;SDS011;36557;53.572;10.170;2023-07-30T09:35:23;8.38;;;2.10;;
50605;SDS011;36557;53.572;10.170;2023-07-30T09:37:50;5.50;;;1.90;;
50605;SDS011;36557;53.572;10.170;2023-07-30T09:40:30;9.65;;;2.20;;
50605;SDS011;36557;53.572;10.170;2023-07-30T09:43:01;6.20;;;1.60;;
50605;SDS011;36557;53.572;10.170;2023-07-30T09:45:32;7.72;;;2.78;;
50605;SDS011;36557;53.572;10.170;2023-07-30T09:48:01;4.53;;;1.67;;
50605;SDS011;36557;53.572;10.170;2023-07-30T09:50:29;6.18;;;1.77;;
50605;SDS011;36557;53.572;10.170;2023-07-30T09:52:56;7.07;;;1.65;;
50605;SDS011;36557;53.572;10.170;2023-07-30T09:55:26;5.18;;;1.65;;
50605;SDS011;36557;53.572;10.170;2023-07-30T09:57:52;7.85;;;2.00;;
50605;SDS011;36557;53.572;10.170;2023-07-30T10:00:17;12.05;;;2.17;;
50605;SDS011;36557;53.572;10.170;2023-07-30T10:02:47;4.30;;;1.45;;
50605;SDS011;36557;53.572;10.170;2023-07-30T10:05:14;11.05;;;2.22;;
50605;SDS011;36557;53.572;10.170;2023-07-30T10:07:52;6.03;;;1.73;;
50605;SDS011;36557;53.572;10.170;2023-07-30T10:10:20;21.08;;;9.27;;
50605;SDS011;36557;53.572;10.170;2023-07-30T10:12:49;6.00;;;1.95;;
50605;SDS011;36557;53.572;10.170;2023-07-30T10:15:20;6.53;;;1.52;;
50605;SDS011;36557;53.572;10.170;2023-07-30T10:17:48;6.22;;;1.63;;
50605;SDS011;36557;53.572;10.170;2023-07-30T10:22:46;6.60;;;1.92;;
50605;SDS011;36557;53.572;10.170;2023-07-30T10:25:12;5.10;;;1.60;;
50605;SDS011;36557;53.572;10.170;2023-07-30T10:27:39;6.18;;;1.50;;
50605;SDS011;36557;53.572;10.170;2023-07-30T10:33:16;6.75;;;1.80;;
50605;SDS011;36557;53.572;10.170;2023-07-30T10:35:35;7.47;;;1.77;;
50605;SDS011;36557;53.572;10.170;2023-07-30T10:41:02;5.43;;;1.60;;
50605;SDS011;36557;53.572;10.170;2023-07-30T10:43:35;6.50;;;2.15;;
50605;SDS011;36557;53.572;10.170;2023-07-30T10:46:02;9.73;;;3.13;;
50605;SDS011;36557;53.572;10.170;2023-07-30T10:50:59;9.50;;;1.77;;
50605;SDS011;36557;53.572;10.170;2023-07-30T10:53:29;8.55;;;1.83;;
50605;SDS011;36557;53.572;10.170;2023-07-30T10:55:57;5.85;;;1.83;;
50605;SDS011;36557;53.572;10.170;2023-07-30T10:58:26;8.10;;;1.90;;
50605;SDS011;36557;53.572;10.170;2023-07-30T11:00:53;5.38;;;1.40;;
50605;SDS011;36557;53.572;10.170;2023-07-30T11:03:19;8.45;;;1.90;;
50605;SDS011;36557;53.572;10.170;2023-07-30T11:05:48;5.22;;;1.48;;
50605;SDS011;36557;53.572;10.170;2023-07-30T11:08:14;7.50;;;1.48;;
50605;SDS011;36557;53.572;10.170;2023-07-30T11:10:46;4.28;;;1.52;;
50605;SDS011;36557;53.572;10.170;2023-07-30T11:13:15;8.32;;;1.73;;
50605;SDS011;36557;53.572;10.170;2023-07-30T11:15:42;5.53;;;1.38;;
50605;SDS011;36557;53.572;10.170;2023-07-30T11:18:11;6.53;;;1.60;;
50605;SDS011;36557;53.572;10.170;2023-07-30T11:20:38;5.03;;;1.50;;
50605;SDS011;36557;53.572;10.170;2023-07-30T11:23:24;5.43;;;1.33;;
50605;SDS011;36557;53.572;10.170;2023-07-30T11:25:50;3.50;;;1.20;;
50605;SDS011;36557;53.572;10.170;2023-07-30T11:30:56;7.95;;;1.63;;
50605;SDS011;36557;53.572;10.170;2023-07-30T11:33:29;4.38;;;1.35;;
50605;SDS011;36557;53.572;10.170;2023-07-30T11:35:55;5.82;;;1.67;;
50605;SDS011;36557;53.572;10.170;2023-07-30T11:38:25;8.18;;;2.22;;
50605;SDS011;36557;53.572;10.170;2023-07-30T11:40:55;5.90;;;1.65;;
50605;SDS011;36557;53.572;10.170;2023-07-30T11:43:21;5.18;;;1.48;;
50605;SDS011;36557;53.572;10.170;2023-07-30T11:45:48;6.00;;;1.60;;
50605;SDS011;36557;53.572;10.170;2023-07-30T11:48:14;3.17;;;1.10;;
50605;SDS011;36557;53.572;10.170;2023-07-30T11:50:49;5.63;;;1.42;;
50605;SDS011;36557;53.572;10.170;2023-07-30T11:53:16;5.97;;;1.42;;
50605;SDS011;36557;53.572;10.170;2023-07-30T11:55:43;4.53;;;1.63;;
50605;SDS011;36557;53.572;10.170;2023-07-30T11:58:10;4.90;;;1.27;;
50605;SDS011;36557;53.572;10.170;2023-07-30T12:00:41;5.95;;;1.60;;
50605;SDS011;36557;53.572;10.170;2023-07-30T12:03:11;3.30;;;1.30;;
50605;SDS011;36557;53.572;10.170;2023-07-30T12:05:40;3.15;;;1.00;;
50605;SDS011;36557;53.572;10.170;2023-07-30T12:08:06;3.28;;;1.05;;
50605;SDS011;36557;53.572;10.170;2023-07-30T12:10:42;4.72;;;1.33;;
50605;SDS011;36557;53.572;10.170;2023-07-30T12:13:12;4.45;;;1.30;;
50605;SDS011;36557;53.572;10.170;2023-07-30T12:15:55;6.00;;;1.30;;
50605;SDS011;36557;53.572;10.170;2023-07-30T12:18:22;4.72;;;1.00;;
50605;SDS011;36557;53.572;10.170;2023-07-30T12:20:49;4.60;;;1.20;;
50605;SDS011;36557;53.572;10.170;2023-07-30T12:23:16;8.68;;;3.25;;
50605;SDS011;36557;53.572;10.170;2023-07-30T12:25:42;4.43;;;1.20;;
50605;SDS011;36557;53.572;10.170;2023-07-30T12:28:08;3.50;;;1.05;;
50605;SDS011;36557;53.572;10.170;2023-07-30T12:30:34;5.78;;;1.40;;
50605;SDS011;36557;53.572;10.170;2023-07-30T12:33:02;7.43;;;1.33;;
50605;SDS011;36557;53.572;10.170;2023-07-30T12:35:28;3.33;;;1.30;;
50605;SDS011;36557;53.572;10.170;2023-07-30T12:37:54;3.90;;;1.20;;
50605;SDS011;36557;53.572;10.170;2023-07-30T12:40:20;3.28;;;0.95;;
50605;SDS011;36557;53.572;10.170;2023-07-30T12:42:46;2.10;;;0.98;;
50605;SDS011;36557;53.572;10.170;2023-07-30T12:45:12;3.70;;;1.23;;
50605;SDS011;36557;53.572;10.170;2023-07-30T12:47:37;5.53;;;1.55;;
50605;SDS011;36557;53.572;10.170;2023-07-30T12:50:04;4.22;;;1.38;;
50605;SDS011;36557;53.572;10.170;2023-07-30T12:52:31;2.63;;;1.00;;
50605;SDS011;36557;53.572;10.170;2023-07-30T12:54:58;4.82;;;1.42;;
50605;SDS011;36557;53.572;10.170;2023-07-30T12:57:23;3.13;;;1.40;;
50605;SDS011;36557;53.572;10.170;2023-07-30T12:59:49;3.70;;;1.75;;
50605;SDS011;36557;53.572;10.170;2023-07-30T13:02:15;3.33;;;1.38;;
50605;SDS011;36557;53.572;10.170;2023-07-30T13:04:40;4.95;;;1.63;;
50605;SDS011;36557;53.572;10.170;2023-07-30T13:07:06;3.58;;;1.30;;
50605;SDS011;36557;53.572;10.170;2023-07-30T13:09:32;5.57;;;1.40;;
50605;SDS011;36557;53.572;10.170;2023-07-30T13:11:58;3.22;;;1.45;;
50605;SDS011;36557;53.572;10.170;2023-07-30T13:14:23;2.80;;;1.10;;
50605;SDS011;36557;53.572;10.170;2023-07-30T13:16:49;3.10;;;1.13;;
50605;SDS011;36557;53.572;10.170;2023-07-30T13:19:15;5.30;;;1.38;;
50605;SDS011;36557;53.572;10.170;2023-07-30T13:21:41;5.15;;;1.50;;
50605;SDS011;36557;53.572;10.170;2023-07-30T13:24:06;4.25;;;1.10;;
50605;SDS011;36557;53.572;10.170;2023-07-30T13:26:32;5.32;;;1.20;;
50605;SDS011;36557;53.572;10.170;2023-07-30T13:28:58;2.60;;;0.80;;
50605;SDS011;36557;53.572;10.170;2023-07-30T13:31:24;2.40;;;0.75;;
50605;SDS011;36557;53.572;10.170;2023-07-30T13:33:49;2.92;;;0.90;;
50605;SDS011;36557;53.572;10.170;2023-07-30T13:36:16;3.22;;;0.70;;
50605;SDS011;36557;53.572;10.170;2023-07-30T13:38:42;2.08;;;1.10;;
50605;SDS011;36557;53.572;10.170;2023-07-30T13:41:08;1.92;;;0.70;;
50605;SDS011;36557;53.572;10.170;2023-07-30T13:43:34;3.22;;;0.80;;
50605;SDS011;36557;53.572;10.170;2023-07-30T13:46:00;3.03;;;0.85;;
50605;SDS011;36557;53.572;10.170;2023-07-30T13:48:26;1.73;;;0.70;;
50605;SDS011;36557;53.572;10.170;2023-07-30T13:50:52;2.95;;;0.80;;
50605;SDS011;36557;53.572;10.170;2023-07-30T13:53:18;1.45;;;0.70;;
50605;SDS011;36557;53.572;10.170;2023-07-30T13:55:44;1.15;;;0.60;;
50605;SDS011;36557;53.572;10.170;2023-07-30T13:58:10;1.50;;;0.70;;
50605;SDS011;36557;53.572;10.170;2023-07-30T14:00:36;3.42;;;1.00;;
50605;SDS011;36557;53.572;10.170;2023-07-30T14:03:02;2.05;;;0.82;;
50605;SDS011;36557;53.572;10.170;2023-07-30T14:05:27;2.50;;;1.02;;
50605;SDS011;36557;53.572;10.170;2023-07-30T14:07:54;1.70;;;0.82;;
50605;SDS011;36557;53.572;10.170;2023-07-30T14:10:22;2.42;;;0.88;;
50605;SDS011;36557;53.572;10.170;2023-07-30T14:12:48;4.47;;;0.90;;
50605;SDS011;36557;53.572;10.170;2023-07-30T14:15:13;3.17;;;0.90;;
50605;SDS011;36557;53.572;10.170;2023-07-30T14:17:40;2.40;;;0.88;;
50605;SDS011;36557;53.572;10.170;2023-07-30T14:20:07;2.97;;;1.17;;
50605;SDS011;36557;53.572;10.170;2023-07-30T14:22:33;2.50;;;0.90;;
50605;SDS011;36557;53.572;10.170;2023-07-30T14:25:00;1.17;;;0.80;;
50605;SDS011;36557;53.572;10.170;2023-07-30T14:27:26;1.92;;;0.75;;
50605;SDS011;36557;53.572;10.170;2023-07-30T14:29:52;2.47;;;0.90;;
50605;SDS011;36557;53.572;10.170;2023-07-30T14:32:19;2.67;;;0.80;;
50605;SDS011;36557;53.572;10.170;2023-07-30T14:34:45;3.83;;;1.00;;
50605;SDS011;36557;53.572;10.170;2023-07-30T14:37:11;1.33;;;0.77;;
50605;SDS011;36557;53.572;10.170;2023-07-30T14:39:37;2.95;;;0.95;;
50605;SDS011;36557;53.572;10.170;2023-07-30T14:42:03;3.22;;;0.88;;
50605;SDS011;36557;53.572;10.170;2023-07-30T14:44:29;3.88;;;0.75;;